sensor_id;sensor_type;location;lat;lon;timestamp;pressure;altitude;pressure_sealevel;temperature;humidity
53506;BME280;39388;50.936;6.848;2023-04-01T00:01:43;98876.31;;;12.21;72.12
53506;BME280;39388;50.936;6.848;2023-04-01T00:04:13;98868.63;;;12.20;72.08
53506;BME280;39388;50.936;6.848;2023-04-01T00:06:43;98835.53;;;12.07;72.25
53506;BME280;39388;50.936;6.848;2023-04-01T00:09:14;98872.03;;;12.20;71.92
53506;BME280;39388;50.936;6.848;2023-04-01T00:11:44;98863.50;;;12.18;71.84
53506;BME280;39388;50.936;6.848;2023-04-01T00:14:15;98855.16;;;12.12;72.28
53506;BME280;39388;50.936;6.848;2023-04-01T00:16:46;98863.63;;;12.15;72.10
53506;BME280;39388;50.936;6.848;2023-04-01T00:19:16;98848.41;;;12.09;72.09
53506;BME280;39388;50.936;6.848;2023-04-01T00:21:46;98855.09;;;12.13;71.77
53506;BME280;39388;50.936;6.848;2023-04-01T00:24:18;98858.59;;;12.12;71.73
53506;BME280;39388;50.936;6.848;2023-04-01T00:26:49;98862.78;;;12.15;72.00
53506;BME280;39388;50.936;6.848;2023-04-01T00:29:19;98864.59;;;12.13;72.46
53506;BME280;39388;50.936;6.848;2023-04-01T00:31:49;98868.09;;;12.12;72.08
53506;BME280;39388;50.936;6.848;2023-04-01T00:34:20;98867.09;;;12.14;72.14
53506;BME280;39388;50.936;6.848;2023-04-01T00:36:51;98861.22;;;12.10;72.18
53506;BME280;39388;50.936;6.848;2023-04-01T00:39:22;98862.13;;;12.09;71.92
53506;BME280;39388;50.936;6.848;2023-04-01T00:41:52;98861.13;;;12.14;72.14
53506;BME280;39388;50.936;6.848;2023-04-01T00:44:25;98863.59;;;12.17;72.22
53506;BME280;39388;50.936;6.848;2023-04-01T00:46:56;98850.97;;;12.09;72.39
53506;BME280;39388;50.936;6.848;2023-04-01T00:49:30;98852.59;;;12.12;72.44
53506;BME280;39388;50.936;6.848;2023-04-01T00:52:02;98856.78;;;12.14;72.46
53506;BME280;39388;50.936;6.848;2023-04-01T00:54:35;98848.31;;;12.10;72.36
53506;BME280;39388;50.936;6.848;2023-04-01T00:57:15;98839.00;;;12.06;72.80
53506;BME280;39388;50.936;6.848;2023-04-01T00:59:50;98849.19;;;12.11;72.48
53506;BME280;39388;50.936;6.848;2023-04-01T01:02:22;98843.28;;;12.07;72.41
53506;BME280;39388;50.936;6.848;2023-04-01T01:04:53;98837.97;;;12.10;72.38
53506;BME280;39388;50.936;6.848;2023-04-01T01:10:32;98844.00;;;12.11;72.38
53506;BME280;39388;50.936;6.848;2023-04-01T01:13:36;98855.94;;;12.14;72.47
53506;BME280;39388;50.936;6.848;2023-04-01T01:16:16;98847.53;;;12.08;72.25
53506;BME280;39388;50.936;6.848;2023-04-01T01:27:12;98846.59;;;12.11;72.15
53506;BME280;39388;50.936;6.848;2023-04-01T01:35:33;98844.00;;;12.11;72.24
53506;BME280;39388;50.936;6.848;2023-04-01T01:38:09;98839.78;;;12.08;72.53
53506;BME280;39388;50.936;6.848;2023-04-01T01:40:44;98847.59;;;12.07;72.39
53506;BME280;39388;50.936;6.848;2023-04-01T01:43:19;98846.81;;;12.05;72.76
53506;BME280;39388;50.936;6.848;2023-04-01T01:45:54;98842.56;;;12.04;73.12
53506;BME280;39388;50.936;6.848;2023-04-01T01:48:27;98838.50;;;11.98;72.92
53506;BME280;39388;50.936;6.848;2023-04-01T01:51:00;98830.16;;;11.91;73.54
53506;BME280;39388;50.936;6.848;2023-04-01T01:53:30;98836.28;;;11.89;73.32
53506;BME280;39388;50.936;6.848;2023-04-01T01:56:01;98832.81;;;11.90;73.39
53506;BME280;39388;50.936;6.848;2023-04-01T01:58:47;98852.69;;;11.88;74.18
53506;BME280;39388;50.936;6.848;2023-04-01T02:01:24;98839.81;;;11.86;74.38
53506;BME280;39388;50.936;6.848;2023-04-01T02:03:57;98835.97;;;11.74;74.35
53506;BME280;39388;50.936;6.848;2023-04-01T02:06:30;98839.50;;;11.72;75.08
53506;BME280;39388;50.936;6.848;2023-04-01T02:09:06;98847.41;;;11.69;75.01
53506;BME280;39388;50.936;6.848;2023-04-01T02:11:41;98841.34;;;11.70;75.06
53506;BME280;39388;50.936;6.848;2023-04-01T02:14:17;98841.63;;;11.62;75.62
53506;BME280;39388;50.936;6.848;2023-04-01T02:16:57;98842.34;;;11.66;75.59
53506;BME280;39388;50.936;6.848;2023-04-01T02:19:38;98844.22;;;11.62;75.54
53506;BME280;39388;50.936;6.848;2023-04-01T02:22:14;98839.28;;;11.56;75.98
53506;BME280;39388;50.936;6.848;2023-04-01T02:24:49;98832.69;;;11.48;76.15
53506;BME280;39388;50.936;6.848;2023-04-01T02:27:20;98826.00;;;11.43;76.39
53506;BME280;39388;50.936;6.848;2023-04-01T02:29:51;98832.91;;;11.42;76.90
53506;BME280;39388;50.936;6.848;2023-04-01T02:32:22;98844.22;;;11.40;77.19
53506;BME280;39388;50.936;6.848;2023-04-01T02:34:53;98836.56;;;11.37;77.94
53506;BME280;39388;50.936;6.848;2023-04-01T02:37:23;98836.91;;;11.27;77.97
53506;BME280;39388;50.936;6.848;2023-04-01T02:39:54;98837.84;;;11.26;77.95
53506;BME280;39388;50.936;6.848;2023-04-01T02:42:28;98833.44;;;11.28;78.08
53506;BME280;39388;50.936;6.848;2023-04-01T02:44:59;98824.38;;;11.18;78.33
53506;BME280;39388;50.936;6.848;2023-04-01T02:47:29;98831.22;;;11.19;79.03
53506;BME280;39388;50.936;6.848;2023-04-01T02:50:00;98832.97;;;11.18;78.98
53506;BME280;39388;50.936;6.848;2023-04-01T02:52:30;98823.66;;;11.14;79.28
53506;BME280;39388;50.936;6.848;2023-04-01T02:55:01;98836.38;;;11.19;78.58
53506;BME280;39388;50.936;6.848;2023-04-01T02:57:31;98834.69;;;11.18;78.74
53506;BME280;39388;50.936;6.848;2023-04-01T03:00:02;98834.75;;;11.16;78.77
53506;BME280;39388;50.936;6.848;2023-04-01T03:02:33;98828.69;;;11.17;78.76
53506;BME280;39388;50.936;6.848;2023-04-01T03:05:04;98826.84;;;11.21;79.14
53506;BME280;39388;50.936;6.848;2023-04-01T03:07:35;98830.44;;;11.17;78.66
53506;BME280;39388;50.936;6.848;2023-04-01T03:10:06;98834.56;;;11.21;78.93
53506;BME280;39388;50.936;6.848;2023-04-01T03:12:37;98835.47;;;11.20;78.46
53506;BME280;39388;50.936;6.848;2023-04-01T03:15:10;98842.22;;;11.24;78.19
53506;BME280;39388;50.936;6.848;2023-04-01T03:17:42;98844.81;;;11.23;78.14
53506;BME280;39388;50.936;6.848;2023-04-01T03:20:12;98841.53;;;11.19;78.43
53506;BME280;39388;50.936;6.848;2023-04-01T03:22:43;98847.38;;;11.24;78.14
53506;BME280;39388;50.936;6.848;2023-04-01T03:25:13;98846.59;;;11.22;78.09
53506;BME280;39388;50.936;6.848;2023-04-01T03:27:44;98852.47;;;11.26;78.35
53506;BME280;39388;50.936;6.848;2023-04-01T03:30:14;98855.16;;;11.23;78.15
53506;BME280;39388;50.936;6.848;2023-04-01T03:32:45;98840.75;;;11.17;77.95
53506;BME280;39388;50.936;6.848;2023-04-01T03:35:15;98846.00;;;11.14;78.19
53506;BME280;39388;50.936;6.848;2023-04-01T03:37:46;98863.78;;;11.22;78.58
53506;BME280;39388;50.936;6.848;2023-04-01T03:40:16;98845.00;;;11.18;78.42
53506;BME280;39388;50.936;6.848;2023-04-01T03:42:46;98856.03;;;11.22;78.31
53506;BME280;39388;50.936;6.848;2023-04-01T03:45:17;98853.47;;;11.22;78.33
53506;BME280;39388;50.936;6.848;2023-04-01T03:47:47;98862.09;;;11.21;78.56
53506;BME280;39388;50.936;6.848;2023-04-01T03:50:18;98853.59;;;11.18;79.07
53506;BME280;39388;50.936;6.848;2023-04-01T03:52:49;98849.34;;;11.17;78.75
53506;BME280;39388;50.936;6.848;2023-04-01T03:55:20;98856.78;;;11.25;78.61
53506;BME280;39388;50.936;6.848;2023-04-01T03:57:50;98846.47;;;11.25;78.53
53506;BME280;39388;50.936;6.848;2023-04-01T04:00:21;98853.34;;;11.25;78.51
53506;BME280;39388;50.936;6.848;2023-04-01T04:02:51;98851.56;;;11.27;78.27
53506;BME280;39388;50.936;6.848;2023-04-01T04:05:23;98856.78;;;11.25;78.64
53506;BME280;39388;50.936;6.848;2023-04-01T04:07:53;98850.06;;;11.21;78.51
53506;BME280;39388;50.936;6.848;2023-04-01T04:10:24;98853.34;;;11.25;78.43
53506;BME280;39388;50.936;6.848;2023-04-01T04:12:55;98856.03;;;11.22;78.79
53506;BME280;39388;50.936;6.848;2023-04-01T04:15:26;98854.34;;;11.21;78.63
53506;BME280;39388;50.936;6.848;2023-04-01T04:17:56;98872.19;;;11.27;78.80
53506;BME280;39388;50.936;6.848;2023-04-01T04:20:26;98860.44;;;11.20;78.62
53506;BME280;39388;50.936;6.848;2023-04-01T04:22:57;98869.69;;;11.25;79.11
53506;BME280;39388;50.936;6.848;2023-04-01T04:25:27;98867.16;;;11.24;78.90
53506;BME280;39388;50.936;6.848;2023-04-01T04:27:57;98866.31;;;11.23;78.73
53506;BME280;39388;50.936;6.848;2023-04-01T04:30:28;98872.41;;;11.21;79.28
53506;BME280;39388;50.936;6.848;2023-04-01T04:32:58;98859.69;;;11.16;79.34
53506;BME280;39388;50.936;6.848;2023-04-01T04:35:28;98864.84;;;11.16;79.47
53506;BME280;39388;50.936;6.848;2023-04-01T04:37:58;98878.44;;;11.21;79.50
53506;BME280;39388;50.936;6.848;2023-04-01T04:40:29;98873.38;;;11.18;79.49
53506;BME280;39388;50.936;6.848;2023-04-01T04:42:59;98873.38;;;11.18;79.76
53506;BME280;39388;50.936;6.848;2023-04-01T04:45:30;98875.13;;;11.17;79.70
53506;BME280;39388;50.936;6.848;2023-04-01T04:48:00;98873.72;;;11.09;80.18
53506;BME280;39388;50.936;6.848;2023-04-01T04:50:31;98865.41;;;11.00;80.44
53506;BME280;39388;50.936;6.848;2023-04-01T04:53:02;98887.53;;;11.08;80.64
53506;BME280;39388;50.936;6.848;2023-04-01T04:55:32;98891.00;;;11.07;80.52
53506;BME280;39388;50.936;6.848;2023-04-01T04:58:02;98891.97;;;11.04;80.89
53506;BME280;39388;50.936;6.848;2023-04-01T05:00:33;98895.28;;;11.06;81.20
53506;BME280;39388;50.936;6.848;2023-04-01T05:03:03;98891.19;;;11.00;81.39
53506;BME280;39388;50.936;6.848;2023-04-01T05:05:34;98894.56;;;11.02;81.56
53506;BME280;39388;50.936;6.848;2023-04-01T05:08:05;98903.16;;;11.03;81.47
53506;BME280;39388;50.936;6.848;2023-04-01T05:10:35;98891.38;;;10.96;81.74
53506;BME280;39388;50.936;6.848;2023-04-01T05:13:06;98898.03;;;11.01;82.40
53506;BME280;39388;50.936;6.848;2023-04-01T05:15:37;98888.06;;;10.92;81.98
53506;BME280;39388;50.936;6.848;2023-04-01T05:18:07;98872.81;;;10.86;82.16
53506;BME280;39388;50.936;6.848;2023-04-01T05:20:38;98899.00;;;10.99;82.42
53506;BME280;39388;50.936;6.848;2023-04-01T05:23:08;98899.84;;;10.99;82.81
53506;BME280;39388;50.936;6.848;2023-04-01T05:25:38;98904.16;;;10.99;82.59
53506;BME280;39388;50.936;6.848;2023-04-01T05:28:09;98912.72;;;10.99;82.90
53506;BME280;39388;50.936;6.848;2023-04-01T05:30:41;98919.56;;;11.00;82.76
53506;BME280;39388;50.936;6.848;2023-04-01T05:33:12;98907.63;;;10.98;83.12
53506;BME280;39388;50.936;6.848;2023-04-01T05:35:43;98906.84;;;10.96;82.98
53506;BME280;39388;50.936;6.848;2023-04-01T05:38:13;98911.97;;;10.97;83.15
53506;BME280;39388;50.936;6.848;2023-04-01T05:40:43;98908.59;;;10.95;83.29
53506;BME280;39388;50.936;6.848;2023-04-01T05:43:14;98910.41;;;10.92;83.25
53506;BME280;39388;50.936;6.848;2023-04-01T05:45:45;98922.28;;;10.97;83.49
53506;BME280;39388;50.936;6.848;2023-04-01T05:48:15;98913.78;;;10.94;83.92
53506;BME280;39388;50.936;6.848;2023-04-01T05:50:46;98919.84;;;10.93;84.48
53506;BME280;39388;50.936;6.848;2023-04-01T05:53:17;98925.78;;;10.95;84.22
53506;BME280;39388;50.936;6.848;2023-04-01T05:55:47;98932.75;;;10.93;84.28
53506;BME280;39388;50.936;6.848;2023-04-01T05:58:18;98923.38;;;10.90;84.34
53506;BME280;39388;50.936;6.848;2023-04-01T06:00:48;98929.41;;;10.91;84.60
53506;BME280;39388;50.936;6.848;2023-04-01T06:03:18;98933.78;;;10.87;85.18
53506;BME280;39388;50.936;6.848;2023-04-01T06:05:49;98934.59;;;10.89;84.80
53506;BME280;39388;50.936;6.848;2023-04-01T06:08:19;98930.44;;;10.85;85.42
53506;BME280;39388;50.936;6.848;2023-04-01T06:19:24;98934.41;;;10.94;85.38
53506;BME280;39388;50.936;6.848;2023-04-01T06:50:22;98955.13;;;11.16;86.27
53506;BME280;39388;50.936;6.848;2023-04-01T06:55:46;98963.56;;;11.21;86.19
53506;BME280;39388;50.936;6.848;2023-04-01T06:58:26;98958.25;;;11.26;86.43
53506;BME280;39388;50.936;6.848;2023-04-01T07:01:01;98963.41;;;11.26;86.51
53506;BME280;39388;50.936;6.848;2023-04-01T07:03:40;98963.28;;;11.29;86.53
53506;BME280;39388;50.936;6.848;2023-04-01T07:08:54;98963.91;;;11.36;86.25
53506;BME280;39388;50.936;6.848;2023-04-01T07:11:35;98955.59;;;11.27;85.97
53506;BME280;39388;50.936;6.848;2023-04-01T07:14:24;98972.47;;;11.36;85.65
53506;BME280;39388;50.936;6.848;2023-04-01T07:17:25;98973.50;;;11.32;85.93
53506;BME280;39388;50.936;6.848;2023-04-01T07:20:22;98983.75;;;11.33;86.02
53506;BME280;39388;50.936;6.848;2023-04-01T07:22:58;98981.97;;;11.36;86.00
53506;BME280;39388;50.936;6.848;2023-04-01T07:25:37;98985.28;;;11.39;85.76
53506;BME280;39388;50.936;6.848;2023-04-01T07:28:13;98987.06;;;11.37;85.78
53506;BME280;39388;50.936;6.848;2023-04-01T07:34:12;98994.78;;;11.39;86.06
53506;BME280;39388;50.936;6.848;2023-04-01T07:36:42;99002.50;;;11.39;85.76
53506;BME280;39388;50.936;6.848;2023-04-01T07:39:34;99005.88;;;11.41;85.52
53506;BME280;39388;50.936;6.848;2023-04-01T07:45:22;99011.78;;;11.44;85.51
53506;BME280;39388;50.936;6.848;2023-04-01T07:50:45;99012.44;;;11.49;85.64
53506;BME280;39388;50.936;6.848;2023-04-01T07:53:32;99012.28;;;11.54;85.70
53506;BME280;39388;50.936;6.848;2023-04-01T07:56:10;99009.75;;;11.53;85.23
53506;BME280;39388;50.936;6.848;2023-04-01T07:59:12;99025.03;;;11.59;85.57
53506;BME280;39388;50.936;6.848;2023-04-01T08:08:03;99020.97;;;11.52;85.39
53506;BME280;39388;50.936;6.848;2023-04-01T08:16:06;99054.41;;;11.55;85.19
53506;BME280;39388;50.936;6.848;2023-04-01T08:19:07;99058.78;;;11.53;85.66
53506;BME280;39388;50.936;6.848;2023-04-01T08:21:49;99050.94;;;11.56;85.77
53506;BME280;39388;50.936;6.848;2023-04-01T08:26:57;99060.00;;;11.68;85.40
53506;BME280;39388;50.936;6.848;2023-04-01T08:32:32;99065.97;;;11.68;85.64
53506;BME280;39388;50.936;6.848;2023-04-01T08:35:37;99076.91;;;11.76;85.81
53506;BME280;39388;50.936;6.848;2023-04-01T08:38:26;99075.09;;;11.78;85.70
53506;BME280;39388;50.936;6.848;2023-04-01T09:10:28;99095.94;;;12.21;84.41
53506;BME280;39388;50.936;6.848;2023-04-01T09:18:53;99110.25;;;12.30;84.83
53506;BME280;39388;50.936;6.848;2023-04-01T09:21:31;99109.19;;;12.36;84.85
53506;BME280;39388;50.936;6.848;2023-04-01T09:27:05;99120.91;;;12.21;84.89
53506;BME280;39388;50.936;6.848;2023-04-01T09:32:37;99124.47;;;12.18;85.15
53506;BME280;39388;50.936;6.848;2023-04-01T09:35:48;99130.44;;;12.20;85.57
53506;BME280;39388;50.936;6.848;2023-04-01T09:38:29;99134.69;;;12.21;84.96
53506;BME280;39388;50.936;6.848;2023-04-01T09:52:31;99157.34;;;12.15;85.00
53506;BME280;39388;50.936;6.848;2023-04-01T09:55:34;99165.81;;;12.18;84.73
53506;BME280;39388;50.936;6.848;2023-04-01T10:04:02;99173.22;;;12.28;84.89
53506;BME280;39388;50.936;6.848;2023-04-01T10:09:47;99178.16;;;12.34;84.33
53506;BME280;39388;50.936;6.848;2023-04-01T10:12:49;99183.34;;;12.34;84.59
53506;BME280;39388;50.936;6.848;2023-04-01T10:27:10;99195.69;;;12.49;83.71
53506;BME280;39388;50.936;6.848;2023-04-01T10:53:03;99197.59;;;12.68;82.87
53506;BME280;39388;50.936;6.848;2023-04-01T11:19:04;99226.84;;;12.92;81.99
53506;BME280;39388;50.936;6.848;2023-04-01T11:22:08;99213.78;;;12.95;81.79
53506;BME280;39388;50.936;6.848;2023-04-01T11:33:35;99230.41;;;12.90;81.66
53506;BME280;39388;50.936;6.848;2023-04-01T11:36:14;99237.16;;;12.94;81.69
53506;BME280;39388;50.936;6.848;2023-04-01T11:44:12;99240.56;;;12.94;81.57
53506;BME280;39388;50.936;6.848;2023-04-01T11:58:28;99262.91;;;12.97;81.67
53506;BME280;39388;50.936;6.848;2023-04-01T12:12:36;99273.16;;;13.44;80.23
53506;BME280;39388;50.936;6.848;2023-04-01T12:35:02;99301.44;;;13.71;79.40
53506;BME280;39388;50.936;6.848;2023-04-01T12:43:27;99307.47;;;13.72;79.49
53506;BME280;39388;50.936;6.848;2023-04-01T12:51:50;99323.25;;;13.66;78.74
53506;BME280;39388;50.936;6.848;2023-04-01T12:54:43;99308.59;;;13.65;78.46
53506;BME280;39388;50.936;6.848;2023-04-01T13:06:22;99295.44;;;13.49;78.28
53506;BME280;39388;50.936;6.848;2023-04-01T13:09:29;99325.19;;;13.60;78.19
53506;BME280;39388;50.936;6.848;2023-04-01T13:12:14;99329.72;;;13.55;78.49
53506;BME280;39388;50.936;6.848;2023-04-01T13:23:23;99332.84;;;13.41;78.93
53506;BME280;39388;50.936;6.848;2023-04-01T13:28:53;99339.94;;;13.35;79.13
53506;BME280;39388;50.936;6.848;2023-04-01T13:31:40;99357.97;;;13.38;78.90
53506;BME280;39388;50.936;6.848;2023-04-01T13:34:38;99359.84;;;13.34;79.05
53506;BME280;39388;50.936;6.848;2023-04-01T13:52:00;99364.94;;;13.36;78.80
53506;BME280;39388;50.936;6.848;2023-04-01T14:00:59;99364.16;;;13.57;78.20
53506;BME280;39388;50.936;6.848;2023-04-01T14:33:46;99416.63;;;13.15;80.33
53506;BME280;39388;50.936;6.848;2023-04-01T14:39:07;99417.63;;;13.11;80.72
53506;BME280;39388;50.936;6.848;2023-04-01T14:47:54;99413.78;;;13.21;80.72
53506;BME280;39388;50.936;6.848;2023-04-01T14:50:23;99421.84;;;13.37;80.79
53506;BME280;39388;50.936;6.848;2023-04-01T14:58:15;99424.13;;;13.46;80.31
53506;BME280;39388;50.936;6.848;2023-04-01T15:09:30;99434.41;;;13.24;81.11
53506;BME280;39388;50.936;6.848;2023-04-01T15:17:58;99438.75;;;13.24;81.32
53506;BME280;39388;50.936;6.848;2023-04-01T15:23:27;99450.00;;;13.23;80.92
53506;BME280;39388;50.936;6.848;2023-04-01T15:32:05;99466.63;;;13.15;80.53
53506;BME280;39388;50.936;6.848;2023-04-01T15:37:53;99460.19;;;13.02;80.02
53506;BME280;39388;50.936;6.848;2023-04-01T15:40:36;99474.66;;;13.08;80.25
53506;BME280;39388;50.936;6.848;2023-04-01T15:43:17;99476.50;;;13.06;79.95
53506;BME280;39388;50.936;6.848;2023-04-01T15:54:27;99484.53;;;12.96;79.67
53506;BME280;39388;50.936;6.848;2023-04-01T15:57:14;99485.53;;;12.92;79.35
53506;BME280;39388;50.936;6.848;2023-04-01T16:00:06;99495.00;;;12.93;79.57
53506;BME280;39388;50.936;6.848;2023-04-01T16:05:47;99502.75;;;12.93;79.00
53506;BME280;39388;50.936;6.848;2023-04-01T16:22:11;99519.56;;;12.81;80.55
53506;BME280;39388;50.936;6.848;2023-04-01T16:24:46;99524.94;;;12.75;80.96
53506;BME280;39388;50.936;6.848;2023-04-01T16:36:28;99531.22;;;12.68;81.07
53506;BME280;39388;50.936;6.848;2023-04-01T16:47:46;99545.47;;;12.53;81.68
53506;BME280;39388;50.936;6.848;2023-04-01T16:50:27;99559.13;;;12.56;81.75
53506;BME280;39388;50.936;6.848;2023-04-01T16:53:17;99563.53;;;12.54;81.94
53506;BME280;39388;50.936;6.848;2023-04-01T16:58:23;99560.16;;;12.52;82.03
53506;BME280;39388;50.936;6.848;2023-04-01T17:01:05;99560.22;;;12.49;81.63
53506;BME280;39388;50.936;6.848;2023-04-01T17:03:43;99564.59;;;12.47;81.76
53506;BME280;39388;50.936;6.848;2023-04-01T17:09:03;99569.03;;;12.44;82.04
53506;BME280;39388;50.936;6.848;2023-04-01T17:11:54;99579.31;;;12.45;82.45
53506;BME280;39388;50.936;6.848;2023-04-01T17:17:26;99577.09;;;12.33;82.12
53506;BME280;39388;50.936;6.848;2023-04-01T17:20:13;99591.78;;;12.32;82.16
53506;BME280;39388;50.936;6.848;2023-04-01T17:22:51;99589.31;;;12.28;82.33
53506;BME280;39388;50.936;6.848;2023-04-01T17:25:49;99583.53;;;12.19;82.79
53506;BME280;39388;50.936;6.848;2023-04-01T17:42:09;99610.72;;;12.03;82.78
53506;BME280;39388;50.936;6.848;2023-04-01T18:03:54;99661.31;;;11.78;84.31
53506;BME280;39388;50.936;6.848;2023-04-01T18:06:48;99660.59;;;11.72;84.41
53506;BME280;39388;50.936;6.848;2023-04-01T18:16:51;99678.88;;;11.64;84.96
53506;BME280;39388;50.936;6.848;2023-04-01T18:22:21;99689.31;;;11.59;85.29
53506;BME280;39388;50.936;6.848;2023-04-01T18:25:17;99688.50;;;11.57;85.34
53506;BME280;39388;50.936;6.848;2023-04-01T18:28:22;99692.03;;;11.55;85.33
53506;BME280;39388;50.936;6.848;2023-04-01T18:31:06;99696.44;;;11.51;85.51
53506;BME280;39388;50.936;6.848;2023-04-01T18:33:58;99713.56;;;11.54;85.32
53506;BME280;39388;50.936;6.848;2023-04-01T18:36:51;99711.94;;;11.49;85.41
53506;BME280;39388;50.936;6.848;2023-04-01T18:39:33;99706.13;;;11.41;85.30
53506;BME280;39388;50.936;6.848;2023-04-01T18:42:19;99723.25;;;11.45;85.68
53506;BME280;39388;50.936;6.848;2023-04-01T18:47:44;99729.25;;;11.46;86.02
53506;BME280;39388;50.936;6.848;2023-04-01T18:53:29;99727.72;;;11.39;85.97
53506;BME280;39388;50.936;6.848;2023-04-01T18:56:07;99733.69;;;11.41;86.23
53506;BME280;39388;50.936;6.848;2023-04-01T18:58:47;99733.72;;;11.39;86.43
53506;BME280;39388;50.936;6.848;2023-04-01T19:02:02;99744.91;;;11.38;86.86
53506;BME280;39388;50.936;6.848;2023-04-01T19:04:38;99749.19;;;11.39;86.51
53506;BME280;39388;50.936;6.848;2023-04-01T19:21:42;99761.63;;;11.23;86.54
53506;BME280;39388;50.936;6.848;2023-04-01T19:38:38;99778.09;;;11.16;87.16
53506;BME280;39388;50.936;6.848;2023-04-01T19:41:20;99772.06;;;11.18;87.42
53506;BME280;39388;50.936;6.848;2023-04-01T19:46:36;99788.44;;;11.16;87.18
53506;BME280;39388;50.936;6.848;2023-04-01T19:52:06;99785.13;;;11.09;87.29
53506;BME280;39388;50.936;6.848;2023-04-01T19:54:58;99790.34;;;11.08;87.43
53506;BME280;39388;50.936;6.848;2023-04-01T20:03:51;99796.50;;;11.00;87.45
53506;BME280;39388;50.936;6.848;2023-04-01T20:09:23;99805.09;;;11.01;87.87
53506;BME280;39388;50.936;6.848;2023-04-01T20:14:58;99802.75;;;10.90;87.51
53506;BME280;39388;50.936;6.848;2023-04-01T20:27:51;99824.19;;;10.92;87.93
53506;BME280;39388;50.936;6.848;2023-04-01T20:33:37;99834.56;;;10.91;88.05
53506;BME280;39388;50.936;6.848;2023-04-01T20:53:24;99853.56;;;10.86;88.18
53506;BME280;39388;50.936;6.848;2023-04-01T21:06:52;99860.47;;;10.84;89.19
53506;BME280;39388;50.936;6.848;2023-04-01T21:34:58;99882.06;;;10.77;89.53
53506;BME280;39388;50.936;6.848;2023-04-01T21:40:35;99894.97;;;10.77;89.42
53506;BME280;39388;50.936;6.848;2023-04-01T21:43:27;99897.53;;;10.79;89.36
53506;BME280;39388;50.936;6.848;2023-04-01T22:03:19;99908.78;;;10.75;90.03
53506;BME280;39388;50.936;6.848;2023-04-01T22:06:25;99909.66;;;10.73;90.04
53506;BME280;39388;50.936;6.848;2023-04-01T22:09:08;99914.81;;;10.73;90.04
53506;BME280;39388;50.936;6.848;2023-04-01T22:14:31;99916.56;;;10.71;90.07
53506;BME280;39388;50.936;6.848;2023-04-01T22:23:22;99921.66;;;10.75;90.51
53506;BME280;39388;50.936;6.848;2023-04-01T22:26:07;99926.81;;;10.75;90.64
53506;BME280;39388;50.936;6.848;2023-04-01T22:29:05;99924.25;;;10.75;90.70
53506;BME280;39388;50.936;6.848;2023-04-01T22:31:43;99929.41;;;10.76;90.58
53506;BME280;39388;50.936;6.848;2023-04-01T22:37:11;99933.63;;;10.79;90.78
53506;BME280;39388;50.936;6.848;2023-04-01T22:42:59;99943.91;;;10.82;91.01
53506;BME280;39388;50.936;6.848;2023-04-01T22:48:55;99952.47;;;10.84;90.47
53506;BME280;39388;50.936;6.848;2023-04-01T22:51:49;99945.75;;;10.73;90.91
53506;BME280;39388;50.936;6.848;2023-04-01T22:54:31;99956.03;;;10.77;90.33
53506;BME280;39388;50.936;6.848;2023-04-01T22:57:08;99956.09;;;10.72;90.80
53506;BME280;39388;50.936;6.848;2023-04-01T22:59:45;99962.13;;;10.71;90.61
53506;BME280;39388;50.936;6.848;2023-04-01T23:02:21;99965.69;;;10.65;90.57
53506;BME280;39388;50.936;6.848;2023-04-01T23:04:57;99969.09;;;10.66;90.75
53506;BME280;39388;50.936;6.848;2023-04-01T23:07:34;99976.00;;;10.65;90.99
53506;BME280;39388;50.936;6.848;2023-04-01T23:10:27;99981.16;;;10.64;91.27
53506;BME280;39388;50.936;6.848;2023-04-01T23:13:01;99980.38;;;10.60;91.17
53506;BME280;39388;50.936;6.848;2023-04-01T23:15:34;99979.53;;;10.60;91.26
53506;BME280;39388;50.936;6.848;2023-04-01T23:18:14;99978.69;;;10.57;91.45
53506;BME280;39388;50.936;6.848;2023-04-01T23:24:32;99990.75;;;10.55;91.47
53506;BME280;39388;50.936;6.848;2023-04-01T23:27:17;99996.75;;;10.56;91.36
53506;BME280;39388;50.936;6.848;2023-04-01T23:29:50;100008.84;;;10.54;91.56
53506;BME280;39388;50.936;6.848;2023-04-01T23:32:23;100011.41;;;10.54;91.24
53506;BME280;39388;50.936;6.848;2023-04-01T23:34:59;100014.03;;;10.49;91.33
53506;BME280;39388;50.936;6.848;2023-04-01T23:37:30;99998.81;;;10.35;91.25
53506;BME280;39388;50.936;6.848;2023-04-01T23:40:00;100026.97;;;10.48;91.54
53506;BME280;39388;50.936;6.848;2023-04-01T23:42:33;100029.59;;;10.45;91.45
53506;BME280;39388;50.936;6.848;2023-04-01T23:45:17;100026.25;;;10.38;91.41
53506;BME280;39388;50.936;6.848;2023-04-01T23:47:51;100033.09;;;10.40;91.66
53506;BME280;39388;50.936;6.848;2023-04-01T23:50:25;100046.00;;;10.40;91.66
53506;BME280;39388;50.936;6.848;2023-04-01T23:53:03;100046.88;;;10.39;91.41
53506;BME280;39388;50.936;6.848;2023-04-01T23:55:34;100053.75;;;10.37;91.47
